Time;durP1;ratioP1;P1;durP2;ratioP2;P2;SDS_P1;SDS_P2;PMS_P1;PMS_P2;Temp;Humidity;BMP_temperature;BMP_pressure;BME280_temperature;BME280_humidity;BME280_pressure;Samples;Min_cycle;Max_cycle;Signal;HPM_P1;HPM_P2
2023/12/12 00:00:29;;;;;;;5.88;1.90;;;7.50;99.90;;;6.85;100.00;96730.69;4976907;28;20046;-39
2023/12/12 00:02:59;;;;;;;6.63;1.73;;;7.50;99.90;;;6.84;100.00;96734.22;4975192;28;20430;-43
2023/12/12 00:05:25;;;;;;;3.95;1.42;;;7.50;99.90;;;6.82;100.00;96734.25;4969516;28;20054;-43
2023/12/12 00:07:51;;;;;;;7.38;1.77;;;7.50;99.90;;;6.80;100.00;96736.09;4965194;28;20041;-40
2023/12/12 00:10:17;;;;;;;2.95;1.40;;;7.40;99.90;;;6.79;100.00;96734.34;4966581;28;21518;-40
2023/12/12 00:12:43;;;;;;;5.53;1.77;;;7.40;99.90;;;6.71;100.00;96717.16;4978523;28;20510;-40
2023/12/12 00:15:10;;;;;;;4.22;1.75;;;7.40;99.90;;;6.72;100.00;96718.88;4971561;28;20042;-39
2023/12/12 00:17:39;;;;;;;8.27;1.92;;;7.40;99.90;;;6.73;100.00;96731.06;4981126;28;20104;-42
2023/12/12 00:20:09;;;;;;;2.60;1.27;;;7.40;99.90;;;6.73;100.00;96731.94;4981866;28;20097;-39
2023/12/12 00:22:36;;;;;;;3.40;1.42;;;7.40;99.90;;;6.68;100.00;96726.84;4971710;28;20580;-39
2023/12/12 00:25:01;;;;;;;4.85;1.33;;;7.40;99.90;;;6.76;100.00;96737.06;4979532;28;20044;-41
2023/12/12 00:27:27;;;;;;;5.78;1.58;;;7.40;99.90;;;6.79;100.00;96734.34;4974091;28;20400;-41
2023/12/12 00:29:54;;;;;;;5.00;1.50;;;7.40;99.90;;;6.82;100.00;96738.63;4980634;28;20054;-40
2023/12/12 00:32:20;;;;;;;4.47;1.30;;;7.50;99.90;;;6.89;100.00;96750.63;4977596;28;20423;-41
2023/12/12 00:34:45;;;;;;;4.28;1.30;;;7.50;99.90;;;6.89;100.00;96740.13;4981011;28;20038;-39
2023/12/12 00:37:11;;;;;;;4.80;1.23;;;7.50;99.90;;;6.91;100.00;96734.84;4980096;28;20816;-40
2023/12/12 00:39:38;;;;;;;3.28;1.13;;;7.60;99.90;;;6.99;100.00;96757.28;4996271;28;20031;-39
2023/12/12 00:42:05;;;;;;;4.55;1.27;;;7.60;99.90;;;7.03;100.00;96748.44;4980290;28;20049;-39
2023/12/12 00:44:30;;;;;;;3.92;1.20;;;7.70;99.90;;;7.04;100.00;96750.13;4978767;28;20046;-40
2023/12/12 00:46:56;;;;;;;5.30;1.20;;;7.70;99.90;;;7.06;100.00;96748.31;4971367;28;20033;-41
2023/12/12 00:49:22;;;;;;;4.70;1.20;;;7.70;99.90;;;7.08;100.00;96745.66;4978659;28;20081;-39
2023/12/12 00:51:47;;;;;;;3.00;1.00;;;7.70;99.90;;;7.10;100.00;96753.47;4975117;28;20140;-38
2023/12/12 00:54:13;;;;;;;3.10;1.00;;;7.70;99.90;;;7.12;100.00;96754.25;4969722;28;20023;-40
2023/12/12 00:56:39;;;;;;;6.82;1.27;;;7.70;99.90;;;7.09;100.00;96742.13;4973551;28;20501;-40
2023/12/12 00:59:04;;;;;;;6.03;1.58;;;7.80;99.90;;;7.19;100.00;96742.66;4970956;28;20058;-40
2023/12/12 01:01:30;;;;;;;5.05;1.30;;;7.80;99.90;;;7.23;100.00;96745.13;4957265;28;20297;-41
2023/12/12 01:03:56;;;;;;;4.90;1.23;;;7.80;99.90;;;7.21;100.00;96744.34;4969781;28;20031;-42
2023/12/12 01:06:23;;;;;;;9.23;1.60;;;7.90;99.90;;;7.29;100.00;96738.81;4969372;28;20531;-41
2023/12/12 01:08:49;;;;;;;5.88;1.58;;;7.90;99.90;;;7.30;100.00;96737.91;4970826;28;20037;-41
2023/12/12 01:11:15;;;;;;;5.93;1.20;;;7.90;99.90;;;7.34;100.00;96741.28;4976279;28;20647;-42
2023/12/12 01:13:40;;;;;;;4.85;1.42;;;8.00;99.90;;;7.33;100.00;96742.19;4979714;28;20158;-42
2023/12/12 01:16:06;;;;;;;4.50;1.20;;;8.00;99.90;;;7.38;100.00;96753.38;4980591;28;20062;-40
2023/12/12 01:18:34;;;;;;;4.38;1.10;;;8.00;99.90;;;7.29;100.00;96737.97;4979121;28;20039;-42
2023/12/12 01:21:03;;;;;;;5.10;1.27;;;8.00;99.90;;;7.40;100.00;96752.41;4980255;28;20048;-39
2023/12/12 01:23:53;;;;;;;4.20;1.10;;;8.00;99.90;;;7.42;100.00;96747.13;4979917;28;20037;-39
2023/12/12 01:26:21;;;;;;;3.67;1.20;;;8.00;99.90;;;7.44;100.00;96746.16;4979136;28;20114;-40
2023/12/12 01:28:47;;;;;;;6.07;1.17;;;8.10;99.90;;;7.47;100.00;96741.72;4992998;28;20038;-40
2023/12/12 01:31:15;;;;;;;4.32;0.98;;;8.10;99.90;;;7.47;100.00;96746.97;4975549;28;20026;-42
2023/12/12 01:33:41;;;;;;;2.85;0.77;;;8.10;99.90;;;7.47;100.00;96742.56;4979413;28;20526;-41
2023/12/12 01:36:07;;;;;;;3.03;0.80;;;8.10;99.90;;;7.49;100.00;96748.63;4978324;28;20379;-41
2023/12/12 01:38:33;;;;;;;4.93;1.20;;;8.10;99.90;;;7.51;100.00;96732.81;4978596;28;20044;-40
2023/12/12 01:40:59;;;;;;;4.93;1.10;;;8.10;99.90;;;7.53;100.00;96725.75;4970707;28;20034;-40
2023/12/12 01:43:29;;;;;;;4.28;1.33;;;8.10;99.90;;;7.51;100.00;96717.09;4978652;28;20030;-40
2023/12/12 01:45:59;;;;;;;4.88;1.17;;;8.10;99.90;;;7.56;100.00;96718.63;4973355;28;20129;-40
2023/12/12 01:48:26;;;;;;;2.53;0.75;;;8.20;99.90;;;7.60;100.00;96714.13;4975878;28;20074;-39
2023/12/12 01:50:52;;;;;;;3.67;1.10;;;8.20;99.90;;;7.61;100.00;96707.97;4982992;28;20030;-40
2023/12/12 01:53:21;;;;;;;2.88;1.02;;;8.20;99.90;;;7.60;100.00;96706.25;4976506;28;20454;-40
2023/12/12 01:55:49;;;;;;;4.28;1.42;;;8.20;99.90;;;7.55;100.00;96716.06;4977825;28;20042;-40
2023/12/12 01:58:17;;;;;;;2.85;0.90;;;8.20;99.90;;;7.46;100.00;96712.00;4976397;28;20092;-39
2023/12/12 02:00:43;;;;;;;3.55;1.10;;;8.10;99.90;;;7.39;100.00;96703.50;4979035;28;20073;-40
2023/12/12 02:03:08;;;;;;;3.83;0.90;;;8.00;99.90;;;7.35;100.00;96712.38;4976786;28;20114;-41
2023/12/12 02:05:37;;;;;;;2.90;1.00;;;8.00;99.90;;;7.32;100.00;96709.00;4979172;28;20034;-42
2023/12/12 02:08:03;;;;;;;3.58;1.00;;;8.00;99.90;;;7.31;100.00;96699.44;4966645;28;20033;-42
2023/12/12 02:10:30;;;;;;;2.17;0.98;;;7.90;99.90;;;7.26;100.00;96703.06;4972734;28;20031;-41
2023/12/12 02:12:56;;;;;;;4.70;0.93;;;7.90;99.90;;;7.16;100.00;96708.66;4978080;28;20050;-41
2023/12/12 02:15:23;;;;;;;3.58;0.90;;;7.80;99.90;;;7.06;100.00;96710.75;4978349;28;20046;-40
2023/12/12 02:17:49;;;;;;;5.28;1.00;;;7.60;99.90;;;6.93;100.00;96701.56;4978426;28;20652;-40
2023/12/12 02:20:15;;;;;;;2.60;0.98;;;7.50;99.90;;;6.84;100.00;96689.66;4969720;28;20089;-39
2023/12/12 02:22:42;;;;;;;2.92;1.30;;;7.50;99.90;;;6.74;100.00;96696.09;4965717;28;20027;-39
2023/12/12 02:25:08;;;;;;;2.13;0.90;;;7.40;99.90;;;6.66;100.00;96683.28;4967858;28;20432;-41
2023/12/12 02:27:35;;;;;;;2.55;1.00;;;7.30;99.90;;;6.59;100.00;96676.53;4975071;28;20058;-40
2023/12/12 02:30:01;;;;;;;3.03;0.98;;;7.20;99.90;;;6.29;100.00;96629.44;4971511;28;20030;-44
2023/12/12 02:32:29;;;;;;;2.55;0.88;;;7.20;99.90;;;6.46;100.00;96673.41;4970768;28;20023;-42
2023/12/12 02:34:54;;;;;;;3.75;0.90;;;7.10;99.90;;;6.43;100.00;96676.16;4976619;28;20402;-40
2023/12/12 02:37:20;;;;;;;2.15;0.80;;;7.00;99.90;;;6.40;100.00;96673.63;4977837;28;20030;-41
2023/12/12 02:39:46;;;;;;;3.30;1.15;;;7.00;99.90;;;6.39;100.00;96674.50;4974091;28;20113;-40
2023/12/12 02:42:12;;;;;;;2.95;0.90;;;7.00;99.90;;;6.35;100.00;96686.84;4975677;28;20049;-39
2023/12/12 02:44:38;;;;;;;3.47;0.85;;;6.90;99.90;;;6.29;100.00;96687.06;4978956;28;20050;-42
2023/12/12 02:47:03;;;;;;;3.25;1.02;;;6.90;99.90;;;6.26;100.00;96693.25;4971745;28;20035;-41
2023/12/12 02:49:29;;;;;;;3.67;0.80;;;6.90;99.90;;;6.21;100.00;96676.81;4975123;28;20518;-41
2023/12/12 02:51:55;;;;;;;1.88;0.90;;;6.90;99.90;;;6.22;100.00;96685.53;4975127;28;20474;-42
2023/12/12 02:54:20;;;;;;;1.85;0.90;;;6.90;99.90;;;6.16;100.00;96676.09;4972414;28;20057;-40
2023/12/12 02:56:46;;;;;;;3.60;0.90;;;6.90;99.90;;;6.15;100.00;96674.38;4978045;28;20097;-39
2023/12/12 02:59:12;;;;;;;1.85;0.85;;;6.80;99.90;;;6.14;100.00;96685.78;4976572;28;20322;-39
2023/12/12 03:01:37;;;;;;;5.82;1.20;;;6.80;99.90;;;6.16;100.00;96689.19;4976778;28;20046;-38
2023/12/12 03:04:03;;;;;;;3.85;1.25;;;6.80;99.90;;;6.13;100.00;96681.44;4976019;28;20617;-40
2023/12/12 03:06:29;;;;;;;2.70;0.93;;;6.80;99.90;;;6.14;100.00;96682.28;4958575;28;20092;-38
2023/12/12 03:08:54;;;;;;;3.78;0.85;;;6.70;99.90;;;6.11;100.00;96681.47;4966469;28;20026;-40
2023/12/12 03:11:20;;;;;;;1.70;0.90;;;6.70;99.90;;;6.13;100.00;96675.34;4969772;28;20041;-39
2023/12/12 03:13:46;;;;;;;3.70;0.88;;;6.80;99.90;;;6.07;100.00;96668.53;4972315;28;20034;-40
2023/12/12 03:16:12;;;;;;;2.83;1.00;;;6.80;99.90;;;6.18;100.00;96678.69;4970960;28;20103;-42
2023/12/12 03:18:37;;;;;;;1.55;0.82;;;6.80;99.90;;;6.21;100.00;96684.69;4980983;28;20034;-41
2023/12/12 03:21:03;;;;;;;3.85;1.15;;;6.90;99.90;;;6.31;100.00;96674.75;4970896;28;20037;-40
2023/12/12 03:23:29;;;;;;;2.20;0.82;;;6.90;99.90;;;6.34;100.00;96666.81;4971752;28;20164;-40
2023/12/12 03:25:55;;;;;;;1.90;0.77;;;7.00;99.90;;;6.42;100.00;96662.19;4974164;28;20057;-39
2023/12/12 03:28:20;;;;;;;4.63;0.93;;;7.10;99.90;;;6.45;100.00;96658.63;4974342;28;20025;-40
2023/12/12 03:30:46;;;;;;;1.80;0.80;;;7.10;99.90;;;6.45;100.00;96650.75;4989965;28;20550;-39
2023/12/12 03:33:12;;;;;;;3.10;0.85;;;7.10;99.90;;;6.52;100.00;96659.28;4978446;28;20050;-40
2023/12/12 03:35:37;;;;;;;2.42;0.60;;;7.20;99.90;;;6.57;100.00;96660.84;4978656;28;20379;-40
2023/12/12 03:38:03;;;;;;;2.20;0.80;;;7.20;99.90;;;6.65;100.00;96663.19;4976301;28;20038;-40
2023/12/12 03:40:29;;;;;;;3.25;0.95;;;7.30;99.90;;;6.62;100.00;96651.06;4972158;28;20113;-40
2023/12/12 03:42:55;;;;;;;4.70;1.08;;;7.30;99.90;;;6.73;100.00;96650.72;4974244;28;20030;-42
2023/12/12 03:45:20;;;;;;;2.10;0.73;;;7.40;99.90;;;6.84;100.00;96650.34;4974187;28;20038;-39
2023/12/12 03:47:46;;;;;;;3.05;0.70;;;7.50;99.90;;;6.91;100.00;96657.09;4975738;28;20117;-40
2023/12/12 03:50:12;;;;;;;1.60;0.88;;;7.60;99.90;;;6.91;100.00;96637.88;4968505;28;20022;-41
2023/12/12 03:52:39;;;;;;;2.15;0.85;;;7.60;99.90;;;7.03;100.00;96638.31;4970987;28;20038;-41
2023/12/12 03:55:08;;;;;;;4.63;0.80;;;7.60;99.90;;;7.04;100.00;96624.28;4979690;28;20406;-40
2023/12/12 03:57:34;;;;;;;1.88;0.80;;;7.70;99.90;;;7.01;100.00;96618.28;4979242;28;20034;-39
2023/12/12 03:59:59;;;;;;;3.53;0.70;;;7.70;99.90;;;6.95;100.00;96615.91;4982871;28;20128;-41
2023/12/12 04:02:25;;;;;;;2.67;0.77;;;7.60;99.90;;;6.90;100.00;96618.66;4974014;28;20057;-40
2023/12/12 04:04:51;;;;;;;2.38;0.73;;;7.50;99.90;;;6.80;100.00;96626.00;4979999;28;20461;-39
2023/12/12 04:07:17;;;;;;;2.35;0.80;;;7.40;99.90;;;6.56;100.00;96606.72;4976719;28;20045;-40
2023/12/12 04:09:43;;;;;;;1.00;0.60;;;7.30;99.90;;;6.57;100.00;96618.03;4976572;28;20034;-41
2023/12/12 04:12:09;;;;;;;2.60;0.90;;;7.20;99.90;;;6.47;100.00;96617.50;4976396;28;20807;-40
2023/12/12 04:14:35;;;;;;;1.20;0.60;;;7.10;99.90;;;6.35;100.00;96615.28;4980727;28;20566;-40
2023/12/12 04:17:00;;;;;;;2.53;0.70;;;7.00;99.90;;;6.21;100.00;96605.25;4974206;28;20030;-40
2023/12/12 04:19:26;;;;;;;1.75;0.43;;;6.90;99.90;;;6.15;100.00;96610.69;4979605;28;20439;-40
2023/12/12 04:21:52;;;;;;;2.92;0.73;;;6.80;99.90;;;6.06;100.00;96602.22;4977215;28;20618;-39
2023/12/12 04:24:17;;;;;;;1.08;0.65;;;6.70;99.90;;;5.93;100.00;96604.34;4981724;28;20034;-40
2023/12/12 04:26:43;;;;;;;2.13;0.63;;;6.60;99.90;;;5.85;100.00;96614.22;4981979;28;20029;-42
2023/12/12 04:29:09;;;;;;;2.90;0.85;;;6.50;99.90;;;5.82;100.00;96613.44;4979125;28;20041;-41
2023/12/12 04:31:36;;;;;;;1.55;0.70;;;6.40;99.90;;;5.77;100.00;96604.88;4974838;28;20034;-40
2023/12/12 04:34:01;;;;;;;2.00;0.80;;;6.40;99.90;;;5.62;100.00;96590.50;4975526;28;20031;-40
2023/12/12 04:36:27;;;;;;;2.13;0.68;;;6.30;99.90;;;5.66;100.00;96603.44;4979426;28;20427;-39
2023/12/12 04:38:53;;;;;;;1.17;0.60;;;6.30;99.90;;;5.60;100.00;96597.53;4981115;28;20034;-39
2023/12/12 04:41:19;;;;;;;1.60;0.65;;;6.30;99.90;;;5.57;100.00;96602.88;4978880;28;20116;-41
2023/12/12 04:43:44;;;;;;;2.25;0.80;;;6.20;99.90;;;5.49;100.00;96600.47;4977369;28;20097;-40
2023/12/12 04:46:18;;;;;;;2.08;0.80;;;6.20;99.90;;;5.52;100.00;96606.44;4973289;28;20046;-40
2023/12/12 04:48:44;;;;;;;1.35;0.60;;;6.20;99.90;;;5.43;100.00;96595.41;4966486;28;20143;-41
2023/12/12 04:51:10;;;;;;;1.20;0.57;;;6.10;99.90;;;5.43;100.00;96584.97;4972841;28;20139;-39
2023/12/12 04:53:35;;;;;;;2.67;0.75;;;6.20;99.90;;;5.50;100.00;96596.94;4972884;28;20037;-40
2023/12/12 04:56:01;;;;;;;1.60;0.77;;;6.10;99.90;;;5.49;100.00;96595.22;4976392;28;20042;-40
2023/12/12 04:58:27;;;;;;;1.52;0.60;;;6.10;99.90;;;5.48;100.00;96593.53;4966544;28;20035;-40
2023/12/12 05:00:52;;;;;;;1.50;0.65;;;6.10;99.90;;;5.50;100.00;96589.97;4966181;28;20049;-40
2023/12/12 05:03:18;;;;;;;2.00;0.60;;;6.10;99.90;;;5.45;100.00;96573.53;4980093;28;21217;-40
2023/12/12 05:05:44;;;;;;;1.02;0.70;;;6.10;99.90;;;5.45;100.00;96573.53;4976299;28;20034;-42
2023/12/12 05:08:10;;;;;;;2.10;0.70;;;6.20;99.90;;;5.47;100.00;96577.00;4972411;28;21010;-40
2023/12/12 05:10:36;;;;;;;0.50;0.50;;;6.10;99.90;;;5.47;100.00;96587.47;4975154;28;20037;-39
2023/12/12 05:13:02;;;;;;;2.38;0.57;;;6.10;99.90;;;5.46;100.00;96590.13;4977165;28;20037;-40
2023/12/12 05:15:29;;;;;;;1.27;0.70;;;6.10;99.90;;;5.47;100.00;96592.69;4969056;28;20042;-43
2023/12/12 05:17:54;;;;;;;1.23;0.50;;;6.10;99.90;;;5.41;100.00;96568.47;4977706;28;20371;-40
2023/12/12 05:20:20;;;;;;;4.15;0.70;;;6.20;99.90;;;5.70;100.00;96604.19;4977742;28;20399;-45
2023/12/12 05:22:46;;;;;;;1.58;0.80;;;6.30;99.90;;;5.80;100.00;96595.19;4976413;28;20034;-42
2023/12/12 05:25:11;;;;;;;1.15;0.73;;;6.50;99.90;;;6.00;100.00;96596.34;4981130;28;20073;-41
2023/12/12 05:27:37;;;;;;;1.52;0.60;;;6.60;99.90;;;6.11;100.00;96587.22;4980891;28;20669;-40
2023/12/12 05:30:04;;;;;;;1.58;0.60;;;6.80;99.90;;;6.21;100.00;96590.44;4984059;28;20022;-40
2023/12/12 05:32:30;;;;;;;1.77;0.60;;;6.90;99.90;;;6.39;100.00;96595.94;4978646;28;20089;-39
2023/12/12 05:34:56;;;;;;;2.15;0.55;;;7.00;99.90;;;6.48;100.00;96600.91;4987293;28;20438;-42
2023/12/12 05:37:21;;;;;;;0.75;0.50;;;7.10;99.90;;;6.57;100.00;96595.34;4977594;28;20553;-39
2023/12/12 05:39:47;;;;;;;1.92;0.65;;;7.20;99.90;;;6.61;100.00;96581.22;4980474;28;20046;-41
2023/12/12 05:42:13;;;;;;;1.90;0.57;;;7.30;99.90;;;6.67;100.00;96567.06;4977312;28;20149;-40
2023/12/12 05:44:39;;;;;;;1.95;0.60;;;7.40;99.90;;;6.82;100.00;96577.03;4985572;28;20686;-39
2023/12/12 05:47:04;;;;;;;0.88;0.50;;;7.40;99.90;;;6.86;100.00;96567.28;4983374;28;20030;-40
2023/12/12 05:49:30;;;;;;;2.25;0.70;;;7.50;99.90;;;6.82;100.00;96555.16;4983724;28;20030;-39
2023/12/12 05:51:56;;;;;;;1.50;0.60;;;7.50;99.90;;;6.88;100.00;96566.31;4970150;28;20359;-40
2023/12/12 05:54:22;;;;;;;1.75;0.60;;;7.50;99.90;;;6.86;100.00;96567.28;4978469;28;20034;-40
2023/12/12 05:56:47;;;;;;;2.03;0.63;;;7.50;99.90;;;6.78;100.00;96551.81;4977439;28;20034;-39
2023/12/12 05:59:14;;;;;;;1.48;0.60;;;7.50;99.90;;;6.71;100.00;96546.84;4975688;28;20253;-40
2023/12/12 06:01:41;;;;;;;2.28;0.90;;;7.50;99.90;;;6.84;100.00;96576.97;4969336;28;20088;-39
2023/12/12 06:04:11;;;;;;;2.10;0.80;;;7.50;99.90;;;6.67;100.00;96553.97;4981150;28;20045;-40
2023/12/12 06:06:43;;;;;;;1.83;0.80;;;7.40;99.90;;;6.80;100.00;96564.84;4979630;28;20618;-40
2023/12/12 06:09:13;;;;;;;4.20;0.88;;;7.40;99.90;;;6.83;100.00;96580.47;4978099;28;20188;-38
2023/12/12 06:11:39;;;;;;;1.65;0.80;;;7.40;99.90;;;6.82;100.00;96571.78;4976853;28;20162;-40
2023/12/12 06:14:05;;;;;;;1.83;0.65;;;7.50;99.90;;;6.77;100.00;96554.50;4983393;28;20089;-40
2023/12/12 06:16:31;;;;;;;1.35;0.57;;;7.50;99.90;;;6.88;100.00;96575.94;4977665;28;20026;-39
2023/12/12 06:18:57;;;;;;;2.63;0.85;;;7.50;99.90;;;6.89;100.00;96580.25;4984520;28;20117;-38
2023/12/12 06:21:23;;;;;;;0.77;0.60;;;7.50;99.90;;;6.83;100.00;96567.38;4974484;28;20036;-37
2023/12/12 06:23:48;;;;;;;2.13;0.73;;;7.50;99.90;;;6.84;100.00;96563.88;4976542;28;20030;-38
2023/12/12 06:26:15;;;;;;;1.02;0.65;;;7.50;99.90;;;6.89;100.00;96561.91;4976885;28;20064;-38
2023/12/12 06:28:41;;;;;;;1.75;0.85;;;7.50;99.90;;;6.92;100.00;96561.81;4976578;28;20062;-39
2023/12/12 06:31:07;;;;;;;3.03;0.90;;;7.50;99.90;;;6.96;100.00;96562.56;4973214;28;20498;-39
2023/12/12 06:33:34;;;;;;;2.05;0.77;;;7.60;99.90;;;6.98;100.00;96564.22;4973420;28;20056;-38
2023/12/12 06:35:59;;;;;;;2.33;0.85;;;7.60;99.90;;;6.99;100.00;96572.94;4980580;28;20041;-38
2023/12/12 06:38:25;;;;;;;1.95;0.77;;;7.60;99.90;;;6.97;100.00;96572.13;4974821;28;20027;-39
2023/12/12 06:40:51;;;;;;;2.20;0.50;;;7.60;99.90;;;7.03;100.00;96567.53;4971344;28;20106;-40
2023/12/12 06:43:17;;;;;;;1.27;0.70;;;7.70;99.90;;;7.05;100.00;96551.72;4969970;28;20062;-40
2023/12/12 06:45:43;;;;;;;2.95;1.25;;;7.70;99.90;;;7.08;100.00;96546.38;4970096;28;20042;-40
2023/12/12 06:48:12;;;;;;;1.27;0.70;;;7.70;99.90;;;7.07;100.00;96536.81;4983503;28;20545;-39
2023/12/12 06:50:38;;;;;;;1.55;0.98;;;7.70;99.90;;;7.09;100.00;96545.47;4984055;28;20485;-39
2023/12/12 06:53:03;;;;;;;3.75;0.73;;;7.70;99.90;;;7.06;100.00;96514.97;4977154;28;20072;-39
2023/12/12 06:55:29;;;;;;;2.38;0.90;;;7.80;99.90;;;7.13;100.00;96523.47;4984561;28;20029;-40
2023/12/12 06:57:55;;;;;;;3.30;1.02;;;7.80;99.90;;;7.18;100.00;96525.94;4982559;28;20034;-41
2023/12/12 07:00:21;;;;;;;1.67;0.88;;;7.80;99.90;;;7.18;100.00;96533.81;4981234;28;20046;-43
2023/12/12 07:02:47;;;;;;;1.30;0.80;;;7.80;99.90;;;7.21;100.00;96529.31;4980232;28;20053;-39
2023/12/12 07:05:15;;;;;;;2.67;1.10;;;7.90;99.90;;;7.30;100.00;96533.31;4981046;28;20486;-41
2023/12/12 07:07:40;;;;;;;3.53;1.30;;;7.90;99.90;;;7.25;100.00;96517.78;4979509;28;20088;-41
2023/12/12 07:10:06;;;;;;;2.35;1.02;;;7.90;99.90;;;7.32;100.00;96531.53;4982187;28;20305;-39
2023/12/12 07:12:33;;;;;;;4.75;1.27;;;7.90;99.90;;;7.35;100.00;96538.41;4979512;28;20041;-40
2023/12/12 07:14:58;;;;;;;4.18;1.08;;;7.90;99.90;;;7.33;100.00;96538.47;4983613;28;20113;-37
2023/12/12 07:17:24;;;;;;;4.65;1.05;;;8.00;99.90;;;7.35;100.00;96534.00;4980156;28;20034;-39
2023/12/12 07:19:50;;;;;;;1.80;0.95;;;8.00;99.90;;;7.41;100.00;96540.78;4986659;28;20101;-38
2023/12/12 07:22:15;;;;;;;1.60;1.00;;;8.00;99.90;;;7.43;100.00;96546.84;4986305;28;20059;-40
2023/12/12 07:24:41;;;;;;;2.03;0.93;;;8.00;99.90;;;7.44;100.00;96553.78;4983747;28;20037;-41
2023/12/12 07:27:07;;;;;;;3.17;1.17;;;8.10;99.90;;;7.46;100.00;96557.19;4988907;28;20150;-40
2023/12/12 07:29:33;;;;;;;2.97;1.20;;;8.10;99.90;;;7.45;100.00;96560.75;4984811;28;20022;-41
2023/12/12 07:31:59;;;;;;;3.15;1.10;;;8.10;99.90;;;7.48;100.00;96568.50;4985087;28;20030;-41
2023/12/12 07:34:25;;;;;;;3.47;1.30;;;8.10;99.90;;;7.47;100.00;96565.94;4986762;28;20045;-39
2023/12/12 07:36:50;;;;;;;2.20;1.10;;;8.10;99.90;;;7.49;100.00;96561.50;4984931;28;20546;-40
2023/12/12 07:39:16;;;;;;;1.58;0.75;;;8.10;99.90;;;7.49;100.00;96558.88;4989568;28;20034;-40
2023/12/12 07:41:43;;;;;;;1.85;1.00;;;8.10;99.90;;;7.50;100.00;96552.69;4985248;28;20030;-39
2023/12/12 07:44:09;;;;;;;2.13;1.10;;;8.10;99.90;;;7.51;100.00;96551.78;4985537;28;20492;-37
2023/12/12 07:46:38;;;;;;;2.45;0.95;;;8.10;99.90;;;7.47;100.00;96527.44;4985031;28;21010;-38
2023/12/12 07:49:05;;;;;;;1.65;1.25;;;8.10;99.90;;;7.49;100.00;96527.41;4984360;28;20541;-38
2023/12/12 07:51:32;;;;;;;2.28;1.10;;;8.10;99.90;;;7.48;100.00;96539.63;4984435;28;20035;-38
2023/12/12 07:54:03;;;;;;;3.85;1.30;;;8.10;99.90;;;7.47;100.00;96545.81;4986110;28;20389;-38
2023/12/12 07:56:29;;;;;;;3.85;1.13;;;8.10;99.90;;;7.49;100.00;96543.97;4986122;28;20092;-39
2023/12/12 07:58:55;;;;;;;1.65;1.00;;;8.10;99.90;;;7.47;100.00;96545.81;4986107;28;20050;-38
2023/12/12 08:01:21;;;;;;;3.63;1.23;;;8.10;99.90;;;7.48;100.00;96533.53;4983433;28;20065;-38
2023/12/12 08:03:46;;;;;;;4.30;1.02;;;8.10;99.90;;;7.45;100.00;96524.03;4985356;28;20034;-38
2023/12/12 08:06:12;;;;;;;2.15;1.10;;;8.10;99.90;;;7.49;100.00;96527.41;4985948;28;20145;-38
2023/12/12 08:08:38;;;;;;;2.17;1.00;;;8.10;99.90;;;7.54;100.00;96539.41;4978405;28;20030;-39
2023/12/12 08:11:04;;;;;;;1.98;0.90;;;8.20;99.90;;;7.52;100.00;96525.50;4985871;28;20533;-38
2023/12/12 08:13:30;;;;;;;3.45;0.90;;;8.10;99.90;;;7.59;100.00;96524.34;4985301;28;20030;-40
2023/12/12 08:15:57;;;;;;;4.82;1.10;;;8.20;99.90;;;7.59;100.00;96524.34;4983389;28;20031;-40
2023/12/12 08:18:22;;;;;;;2.55;1.15;;;8.20;99.90;;;7.62;100.00;96518.13;4982776;28;20356;-39
2023/12/12 08:20:49;;;;;;;3.58;1.45;;;8.20;99.90;;;7.61;100.00;96512.03;4988351;28;20080;-39
2023/12/12 08:23:15;;;;;;;2.70;1.27;;;8.20;99.90;;;7.60;100.00;96498.97;4982675;28;20480;-38
2023/12/12 08:25:40;;;;;;;1.15;1.00;;;8.30;99.90;;;7.66;100.00;96490.81;4985994;28;20129;-40
2023/12/12 08:28:08;;;;;;;2.22;1.10;;;8.30;99.90;;;7.77;100.00;96508.78;4984975;28;20471;-38
2023/12/12 08:30:36;;;;;;;2.60;1.20;;;8.30;99.90;;;7.73;100.00;96471.28;4981832;28;20022;-42
2023/12/12 08:33:01;;;;;;;2.03;0.95;;;8.40;99.90;;;7.84;100.00;96477.00;4982865;28;20038;-40
2023/12/12 08:35:27;;;;;;;3.92;1.40;;;8.40;99.90;;;7.83;100.00;96467.38;4981237;28;20030;-40
2023/12/12 08:37:54;;;;;;;3.30;1.00;;;8.40;99.90;;;7.82;100.00;96467.44;4981474;28;20355;-40
2023/12/12 08:40:19;;;;;;;4.13;1.00;;;8.50;99.90;;;7.93;100.00;96464.38;4982129;28;20030;-39
2023/12/12 08:42:45;;;;;;;1.80;1.10;;;8.50;99.90;;;8.00;100.00;96460.59;4985501;28;20065;-40
2023/12/12 08:45:11;;;;;;;1.85;1.08;;;8.60;99.90;;;8.03;100.00;96457.84;4984765;28;20065;-40
2023/12/12 08:47:36;;;;;;;1.98;1.13;;;8.60;99.90;;;8.04;100.00;96464.81;4987128;28;20364;-40
2023/12/12 08:50:04;;;;;;;3.70;1.20;;;8.60;99.90;;;7.92;100.00;96449.56;4986882;28;20093;-41
2023/12/12 08:52:31;;;;;;;1.90;1.23;;;8.60;99.90;;;8.10;100.00;96463.69;4984355;28;20478;-37
2023/12/12 08:54:57;;;;;;;2.58;1.17;;;8.60;99.90;;;8.14;100.00;96458.22;4982703;28;20046;-40
2023/12/12 08:57:24;;;;;;;2.33;1.10;;;8.70;99.90;;;8.29;100.00;96453.25;4986090;28;20088;-38
2023/12/12 08:59:49;;;;;;;2.30;1.20;;;8.80;99.90;;;8.37;100.00;96453.78;4985306;28;20117;-39
2023/12/12 09:02:17;;;;;;;2.85;1.00;;;8.90;99.90;;;8.43;100.00;96453.53;4987558;28;20509;-38
2023/12/12 09:04:42;;;;;;;2.88;1.40;;;9.00;99.90;;;8.45;100.00;96458.72;4985572;28;20964;-42
2023/12/12 09:07:08;;;;;;;2.75;0.95;;;9.00;99.90;;;8.47;100.00;96462.13;4985676;28;20915;-39
2023/12/12 09:09:34;;;;;;;4.55;1.42;;;9.00;99.90;;;8.48;100.00;96450.72;4977960;28;20041;-39
2023/12/12 09:12:00;;;;;;;2.30;1.10;;;9.10;99.90;;;8.51;100.00;96464.56;4983159;28;20038;-41
2023/12/12 09:14:27;;;;;;;2.17;1.08;;;9.10;99.90;;;8.43;100.00;96442.19;4983791;28;20483;-40
2023/12/12 09:16:53;;;;;;;2.05;1.08;;;9.10;99.90;;;8.48;100.00;96463.84;4980892;28;20546;-40
2023/12/12 09:19:19;;;;;;;3.67;1.02;;;9.10;99.90;;;8.39;100.00;96446.69;4981503;28;20052;-40
2023/12/12 09:21:45;;;;;;;3.13;1.10;;;9.10;99.90;;;8.47;100.00;96463.00;4981006;28;20911;-42
2023/12/12 09:24:10;;;;;;;2.17;1.02;;;9.10;99.90;;;8.49;100.00;96469.06;4979814;28;20030;-40
2023/12/12 09:26:36;;;;;;;2.90;1.30;;;9.00;99.90;;;8.47;100.00;96465.63;4973638;28;20038;-40
2023/12/12 09:29:02;;;;;;;2.75;1.23;;;9.00;99.90;;;8.40;100.00;96436.09;4980428;28;20030;-40
2023/12/12 09:31:29;;;;;;;1.50;1.05;;;9.00;99.90;;;8.43;100.00;96435.16;4979833;28;20080;-39
2023/12/12 09:33:55;;;;;;;2.67;1.30;;;9.00;99.90;;;8.45;100.00;96429.81;4981404;28;20078;-39
2023/12/12 09:36:21;;;;;;;2.63;1.10;;;9.00;99.90;;;8.47;100.00;96428.84;4980666;28;20080;-41
2023/12/12 09:38:47;;;;;;;2.63;1.30;;;9.00;99.90;;;8.48;100.00;96422.66;4984235;28;20088;-39
2023/12/12 09:41:20;;;;;;;2.60;1.50;;;9.10;99.90;;;8.49;100.00;96427.00;4976767;28;20042;-39
2023/12/12 09:43:48;;;;;;;3.10;1.42;;;9.10;99.90;;;8.41;100.00;96400.16;4976196;28;20430;-38
2023/12/12 09:46:16;;;;;;;3.33;1.55;;;9.10;99.90;;;8.55;100.00;96420.63;4980247;28;20620;-40
2023/12/12 09:48:47;;;;;;;3.08;1.45;;;9.10;99.90;;;8.53;100.00;96412.81;4983516;28;20068;-39
2023/12/12 09:51:17;;;;;;;4.32;1.40;;;9.10;99.90;;;8.38;100.00;96389.78;4982009;28;20018;-39
2023/12/12 09:53:46;;;;;;;2.95;1.42;;;9.10;99.90;;;8.48;100.00;96395.53;4980159;28;20153;-39
2023/12/12 09:56:17;;;;;;;2.20;1.42;;;9.10;99.90;;;8.46;100.00;96394.75;4986578;28;20026;-39
2023/12/12 09:58:46;;;;;;;3.33;1.40;;;9.00;99.90;;;8.44;100.00;96389.56;4995390;28;20084;-38
2023/12/12 10:01:13;;;;;;;4.53;1.63;;;9.00;99.90;;;8.32;100.00;96377.78;4977116;28;20054;-42
2023/12/12 10:03:39;;;;;;;4.55;1.70;;;9.00;99.90;;;8.39;100.00;96386.25;4977234;28;20064;-39
2023/12/12 10:06:08;;;;;;;2.42;1.42;;;8.90;99.90;;;8.36;100.00;96375.88;4983437;28;20064;-39
2023/12/12 10:08:35;;;;;;;3.17;1.70;;;8.90;99.90;;;8.28;100.00;96367.50;4980451;28;20037;-41
2023/12/12 10:11:03;;;;;;;3.70;1.55;;;8.90;99.90;;;8.30;100.00;96361.25;4979105;28;20049;-39
2023/12/12 10:13:45;;;;;;;3.72;1.67;;;8.90;99.90;;;8.31;100.00;96359.47;4980646;28;20027;-41
2023/12/12 10:16:12;;;;;;;1.88;1.13;;;8.90;99.90;;;8.29;100.00;96369.19;4986398;28;20038;-42
2023/12/12 10:18:37;;;;;;;1.70;1.17;;;8.90;99.90;;;8.27;100.00;96360.53;4978845;28;20421;-39
2023/12/12 10:21:17;;;;;;;2.63;1.08;;;8.80;99.90;;;8.25;100.00;96357.97;4975713;28;20315;-39